Airfield :
LOGIN :

Register | Disclaimer

   EN    FR    IT 

 










Legend :    VFR   Marginal VFR   IFR   Intensive IFR   Very Intensive IFR
Visi :
Ceiling :
>= 8 km
>= 3000ft
5 to 8 km
1000 to 3000 ft
1500m to 5 km
500 to 1000 ft
800 to 1500m
200 to 500 ft
< 800m
< 200 ft
Symbols :   Thunderstorms  Fog  Heavy snow  Heavy precipitations  Wind > 20 kt
SIGMETs :     Misc.  Thunderstorms  Icing  Turbulence  Mountain Waves  Volcanic Ashes







- Airport Elevation : 44 ft
- IATA code : SOU
- Download approach charts


EGHI - Southampton

CURRENT METAR :
  • 201920Z 27008KT 250V320 9999 FEW045 19/10 Q1014

EXPIRED METARs :
  • 201850Z 28009KT 230V340 9999 FEW045 19/10 Q1013
  • 201820Z 28010KT 230V310 9999 FEW045 20/11 Q1013
  • 201750Z 28010KT 240V310 9999 SCT045 20/10 Q1012
  • 201720Z 27011KT 240V300 9999 SCT040 20/11 Q1012
  • 201650Z 23011KT 200V270 9999 SCT040 20/12 Q1011

TAF TAF EGHI
Valid from the 20 at 18:00 until the 20 at 22:00 UTC


201656Z 2018/2022 21012KT 9999 SCT035
BECMG 2018/2021 28005KT
ATIS : +44 23 8062 7103
No reported NOTAMs for that airfield.



MET'MAP, your aeronautical weather chart ! - Copyright ORBIFLY December 2007 - Disclaimer

ORBIFLY MET'MAP TEAM :

Programming & Development : Alexandra Zaïnal
Concept & Development : Baudouin d'Aumeries
Co-Development & Prog : Marc-Olivier Méhu
Technical & hardware support : Manuel Goepfert

Contact : metmap@orbifly.com




SOURCES & CREDITS :

   NOAA